Time;durP1;ratioP1;P1;durP2;ratioP2;P2;SDS_P1;SDS_P2;PMS_P1;PMS_P2;Temp;Humidity;BMP_temperature;BMP_pressure;BME280_temperature;BME280_humidity;BME280_pressure;Samples;Min_cycle;Max_cycle;Signal;HPM_P1;HPM_P2
2021/06/11 00:01:39;;;;;;;8.10;7.50;;;;;;;14.64;87.26;96842.38;5117431;28;20035;-74
2021/06/11 00:04:05;;;;;;;9.32;8.63;;;;;;;14.63;87.69;96843.41;5117081;28;20391;-74
2021/06/11 00:06:32;;;;;;;7.53;6.93;;;;;;;14.61;87.97;96842.84;5117345;28;20039;-74
2021/06/11 00:08:58;;;;;;;8.02;7.50;;;;;;;14.57;87.79;96839.06;5117312;28;20460;-74
2021/06/11 00:11:25;;;;;;;7.60;7.10;;;;;;;14.57;87.83;96834.59;5117053;27;20046;-74
2021/06/11 00:13:51;;;;;;;7.72;7.22;;;;;;;14.57;88.01;96847.81;5117316;28;20368;-73
2021/06/11 00:16:18;;;;;;;7.50;6.93;;;;;;;14.57;88.21;96839.88;5116946;28;20040;-74
2021/06/11 00:18:44;;;;;;;8.82;8.20;;;;;;;14.56;88.42;96830.34;5116838;28;20035;-74
2021/06/11 00:21:10;;;;;;;8.43;7.82;;;;;;;14.54;88.46;96835.03;5117280;27;20042;-73
2021/06/11 00:23:37;;;;;;;8.80;8.30;;;;;;;14.55;88.61;96834.03;5116772;28;20140;-73
2021/06/11 00:26:04;;;;;;;7.70;7.20;;;;;;;14.55;88.66;96834.03;5116925;28;20050;-74
2021/06/11 00:28:30;;;;;;;8.25;7.65;;;;;;;14.55;88.83;96834.03;5117127;28;20042;-73
2021/06/11 00:30:57;;;;;;;8.40;7.85;;;;;;;14.54;88.88;96835.03;5116596;28;20046;-74
2021/06/11 00:33:23;;;;;;;7.57;7.07;;;;;;;14.55;89.13;96828.75;5116693;28;20407;-74
2021/06/11 00:35:49;;;;;;;7.30;6.85;;;;;;;14.56;89.01;96829.53;5116536;28;20475;-74
2021/06/11 00:38:15;;;;;;;7.65;7.25;;;;;;;14.55;89.09;96831.38;5116067;28;20055;-74
2021/06/11 00:40:44;;;;;;;8.13;7.63;;;;;;;14.55;89.27;96835.81;5114306;28;20044;-74
2021/06/11 00:43:14;;;;;;;8.10;7.60;;;;;;;14.55;89.30;96827.91;5115549;28;20059;-74
2021/06/11 00:45:42;;;;;;;7.90;7.40;;;;;;;14.54;89.35;96834.22;5114096;28;20043;-74
2021/06/11 00:48:09;;;;;;;8.25;7.75;;;;;;;14.53;89.49;96825.50;5115114;28;20034;-74
2021/06/11 00:50:36;;;;;;;9.35;8.70;;;;;;;14.55;89.48;96827.91;5115465;28;20047;-74
2021/06/11 00:53:04;;;;;;;9.73;8.82;;;;;;;14.52;89.55;96823.09;5115765;28;20042;-73
2021/06/11 00:55:30;;;;;;;11.00;10.20;;;;;;;14.47;89.45;96825.63;5114808;28;20400;-74
2021/06/11 00:57:57;;;;;;;93.22;14.70;;;;;;;14.38;89.61;96827.81;5115275;28;20047;-74
2021/06/11 01:00:24;;;;;;;10.73;9.93;;;;;;;14.30;90.11;96826.38;5114809;28;20043;-74
2021/06/11 01:02:50;;;;;;;9.30;8.70;;;;;;;14.28;90.22;96825.78;5115038;28;20035;-73
2021/06/11 01:05:17;;;;;;;8.88;8.27;;;;;;;14.29;90.56;96837.94;5115560;28;20063;-74
2021/06/11 01:07:47;;;;;;;8.25;7.75;;;;;;;14.31;90.77;96830.59;5115033;28;20062;-74
2021/06/11 01:10:13;;;;;;;6.93;6.53;;;;;;;14.33;90.85;96831.16;5101294;28;20472;-74
2021/06/11 01:12:40;;;;;;;7.50;7.00;;;;;;;14.34;90.63;96822.22;5114372;28;20066;-74
2021/06/11 01:15:09;;;;;;;7.18;6.68;;;;;;;14.37;90.62;96827.03;5115041;28;20042;-73
2021/06/11 01:17:36;;;;;;;7.63;7.13;;;;;;;14.37;90.70;96827.03;5115370;28;20032;-73
2021/06/11 01:20:09;;;;;;;7.28;6.88;;;;;;;14.38;90.76;96827.81;5114873;28;20032;-74
2021/06/11 01:22:54;;;;;;;7.60;7.20;;;;;;;14.38;90.82;96823.38;5114711;28;20057;-74
2021/06/11 01:25:26;;;;;;;;;;;;;;;14.36;90.59;96819.34;5101996;28;20282;-74
2021/06/11 01:27:52;;;;;;;7.03;6.63;;;;;;;14.34;90.49;96819.59;5114886;28;19916;-74
2021/06/11 01:30:22;;;;;;;7.32;6.93;;;;;;;14.32;90.79;96819.03;5114335;28;20048;-73
2021/06/11 01:32:51;;;;;;;7.20;6.80;;;;;;;14.32;90.72;96821.66;5114630;28;20486;-73
2021/06/11 01:35:21;;;;;;;6.90;6.50;;;;;;;14.30;90.57;96817.63;5114202;28;20048;-73
2021/06/11 01:37:53;;;;;;;6.40;6.10;;;;;;;14.27;90.54;96821.53;5111834;28;99127;-73
2021/06/11 01:40:19;;;;;;;6.72;6.32;;;;;;;14.25;90.57;96823.59;5115331;27;20055;-74
2021/06/11 01:42:48;;;;;;;9.27;7.68;;;;;;;14.24;90.46;96826.47;5115264;28;20042;-74
2021/06/11 01:45:15;;;;;;;7.35;6.93;;;;;;;14.22;90.49;96829.34;5115209;28;20494;-73
2021/06/11 01:47:46;;;;;;;6.95;6.45;;;;;;;14.20;90.54;96820.88;5114744;28;20391;-74
2021/06/11 01:50:18;;;;;;;6.97;6.53;;;;;;;14.20;90.60;96829.56;5115320;28;20035;-74
2021/06/11 01:52:45;;;;;;;7.55;7.05;;;;;;;14.19;90.61;96816.63;5114918;28;20046;-74
2021/06/11 01:55:12;;;;;;;7.70;6.97;;;;;;;14.17;90.50;96822.13;5115078;27;20035;-73
2021/06/11 01:57:40;;;;;;;7.30;6.90;;;;;;;14.11;90.23;96822.22;5115180;28;20054;-73
2021/06/11 02:00:07;;;;;;;7.22;6.82;;;;;;;14.04;90.17;96825.00;5114976;28;20031;-73
2021/06/11 02:02:35;;;;;;;6.70;6.32;;;;;;;13.99;90.38;96827.53;5115047;27;20043;-73
2021/06/11 02:05:04;;;;;;;6.45;5.95;;;;;;;13.96;90.47;96823.53;5114312;28;20036;-73
2021/06/11 02:07:31;;;;;;;6.60;6.20;;;;;;;13.93;90.55;96820.53;5114960;28;20039;-73
2021/06/11 02:09:58;;;;;;;7.47;6.80;;;;;;;13.90;90.61;96816.53;5114803;28;20050;-74
2021/06/11 02:12:24;;;;;;;7.05;6.57;;;;;;;13.86;90.37;96818.03;5115127;28;20039;-73
2021/06/11 02:14:50;;;;;;;6.35;6.00;;;;;;;13.80;90.51;96819.72;5114428;27;20048;-74
2021/06/11 02:17:18;;;;;;;7.20;6.80;;;;;;;13.80;90.66;96821.56;5113072;28;20044;-74
2021/06/11 02:19:45;;;;;;;56.80;7.57;;;;;;;13.78;90.55;96821.00;5114007;28;20051;-73
2021/06/11 02:22:11;;;;;;;5.07;4.78;;;;;;;13.73;90.71;96819.06;5114668;28;20036;-73
2021/06/11 02:24:39;;;;;;;6.70;6.10;;;;;;;13.69;90.56;96823.19;5113283;28;20464;-74
2021/06/11 02:27:07;;;;;;;5.53;5.13;;;;;;;13.65;90.80;96827.28;5113513;28;20046;-74
2021/06/11 02:29:35;;;;;;;11.00;6.82;;;;;;;13.61;90.44;96820.88;5114822;27;20423;-74
2021/06/11 02:32:03;;;;;;;5.93;5.63;;;;;;;13.54;90.90;96818.34;5114396;28;20043;-73
2021/06/11 02:34:29;;;;;;;6.43;6.10;;;;;;;13.54;91.27;96823.63;5114620;28;20104;-73
2021/06/11 02:36:55;;;;;;;6.10;5.80;;;;;;;13.55;91.40;96817.31;5113583;28;20062;-73
2021/06/11 02:39:21;;;;;;;5.70;5.40;;;;;;;13.56;91.74;96824.16;5114373;28;20043;-74
2021/06/11 02:41:51;;;;;;;5.47;5.07;;;;;;;13.60;91.83;96829.78;5113126;28;20055;-74
2021/06/11 02:44:21;;;;;;;6.10;5.05;;;;;;;13.50;91.12;96830.38;5114129;28;20040;-74
2021/06/11 02:46:54;;;;;;;12.88;6.78;;;;;;;13.40;91.20;96827.50;5114160;28;20040;-74
2021/06/11 02:49:48;;;;;;;6.57;6.18;;;;;;;13.34;92.36;96821.28;5113925;28;20028;-73
2021/06/11 02:52:15;;;;;;;17.85;5.60;;;;;;;13.31;91.81;96827.00;5114054;28;20031;-73
2021/06/11 02:54:44;;;;;;;5.40;5.10;;;;;;;13.30;92.13;96820.13;5114768;28;20046;-73
2021/06/11 02:57:29;;;;;;;5.70;5.40;;;;;;;13.31;93.21;96824.38;5113890;28;20024;-73
2021/06/11 03:00:06;;;;;;;4.78;4.47;;;;;;;13.36;93.14;96823.69;5114050;28;20483;-73
2021/06/11 03:02:38;;;;;;;4.30;4.10;;;;;;;13.40;92.98;96830.13;5112325;28;20039;-73
2021/06/11 03:05:08;;;;;;;4.53;4.32;;;;;;;13.44;92.79;96823.38;5113915;28;20028;-73
2021/06/11 03:07:36;;;;;;;3.97;3.78;;;;;;;13.47;92.59;96825.53;5113731;28;20368;-73
2021/06/11 03:10:06;;;;;;;4.85;4.65;;;;;;;13.49;92.72;96815.56;5113948;28;20047;-74
2021/06/11 03:12:34;;;;;;;4.50;4.30;;;;;;;13.47;92.21;96811.56;5113857;28;20039;-74
2021/06/11 03:15:02;;;;;;;4.43;4.20;;;;;;;13.46;92.31;96820.50;5113869;28;20032;-74
2021/06/11 03:17:32;;;;;;;3.88;3.67;;;;;;;13.46;92.34;96826.59;5113868;28;20399;-74
2021/06/11 03:20:06;;;;;;;3.83;3.58;;;;;;;13.46;92.46;96821.31;5113544;28;20032;-75
2021/06/11 03:22:37;;;;;;;3.77;3.57;;;;;;;13.47;92.32;96822.91;5106299;28;20031;-73
2021/06/11 03:25:16;;;;;;;3.75;3.55;;;;;;;13.47;92.30;96817.63;5113316;28;20284;-74
2021/06/11 03:27:51;;;;;;;3.78;3.47;;;;;;;13.48;92.34;96819.25;5114041;28;20031;-74
2021/06/11 03:30:21;;;;;;;3.78;3.58;;;;;;;13.48;92.09;96821.06;5113687;28;20118;-74
2021/06/11 03:32:52;;;;;;;3.40;3.28;;;;;;;13.46;92.15;96816.03;5113320;28;20043;-74
2021/06/11 03:35:28;;;;;;;3.60;3.40;;;;;;;13.45;91.90;96818.91;5114174;28;20036;-74
2021/06/11 03:37:55;;;;;;;2.88;2.78;;;;;;;13.45;91.96;96819.69;5113690;28;20052;-73
2021/06/11 03:40:29;;;;;;;3.25;3.10;;;;;;;13.48;91.74;96819.25;5113701;28;20047;-73
2021/06/11 03:42:56;;;;;;;3.40;3.20;;;;;;;13.46;91.64;96817.84;5112987;28;20395;-74
2021/06/11 03:45:23;;;;;;;3.20;3.10;;;;;;;13.45;91.43;96816.25;5113488;28;20039;-74
2021/06/11 03:47:51;;;;;;;3.03;2.92;;;;;;;13.44;91.59;96818.09;5112741;28;20415;-74
2021/06/11 03:50:23;;;;;;;3.50;3.30;;;;;;;13.45;91.18;96824.16;5113602;28;20058;-74
2021/06/11 03:52:51;;;;;;;3.05;2.83;;;;;;;13.44;91.26;96825.19;5113209;28;20042;-74
2021/06/11 03:55:26;;;;;;;3.70;3.50;;;;;;;13.43;90.98;96821.75;5113248;28;20043;-73
2021/06/11 03:58:08;;;;;;;3.80;3.60;;;;;;;13.40;90.73;96824.84;5113853;28;20047;-74
2021/06/11 04:00:36;;;;;;;4.05;3.85;;;;;;;13.36;90.75;96821.84;5113743;28;20503;-73
2021/06/11 04:03:02;;;;;;;3.92;3.72;;;;;;;13.32;90.72;96819.91;5112920;28;20039;-74
2021/06/11 04:05:29;;;;;;;3.60;3.40;;;;;;;13.27;90.87;96825.81;5113337;28;20421;-74
2021/06/11 04:07:57;;;;;;;94.63;8.18;;;;;;;13.22;90.62;96823.06;5112602;28;20059;-74
2021/06/11 04:10:40;;;;;;;4.32;4.10;;;;;;;13.12;90.94;96826.25;5113236;28;20044;-74
2021/06/11 04:13:17;;;;;;;31.27;5.00;;;;;;;13.11;90.95;96823.81;5103903;28;20048;-74
2021/06/11 04:15:48;;;;;;;3.50;3.30;;;;;;;13.11;90.91;96821.19;5101947;28;20028;-74
2021/06/11 04:18:24;;;;;;;3.20;3.10;;;;;;;13.11;91.15;96827.25;5113167;28;20023;-74
2021/06/11 04:20:58;;;;;;;2.88;2.78;;;;;;;13.16;91.38;96826.56;5113565;28;20070;-73
2021/06/11 04:23:28;;;;;;;3.67;3.40;;;;;;;13.20;91.43;96831.16;5113247;28;20046;-74
2021/06/11 04:25:57;;;;;;;14.77;4.55;;;;;;;13.22;91.73;96833.59;5112943;28;20395;-74
2021/06/11 04:28:26;;;;;;;9.60;3.60;;;;;;;13.22;91.43;96838.84;5112875;28;20035;-73
2021/06/11 04:30:53;;;;;;;3.00;2.90;;;;;;;13.22;90.97;96841.47;5116627;27;20047;-73
2021/06/11 04:33:25;;;;;;;36.42;4.78;;;;;;;13.23;90.75;96837.00;5117048;28;20395;-73
2021/06/11 04:36:01;;;;;;;3.13;2.88;;;;;;;13.24;90.73;96836.00;5132279;27;20182;-74
2021/06/11 04:38:28;;;;;;;22.85;4.35;;;;;;;13.29;90.89;96839.59;5131953;27;20044;-74
2021/06/11 04:40:54;;;;;;;3.30;3.20;;;;;;;13.27;90.81;96836.38;5131445;28;20460;-73
2021/06/11 04:43:24;;;;;;;3.15;2.70;;;;;;;13.31;90.69;96842.00;5131443;27;20031;-74
2021/06/11 04:45:50;;;;;;;95.78;8.05;;;;;;;13.31;90.27;96839.34;5131448;27;20395;-73
2021/06/11 04:48:17;;;;;;;8.68;3.30;;;;;;;13.28;90.68;96840.59;5131974;27;20031;-74
2021/06/11 04:50:43;;;;;;;3.88;2.70;;;;;;;13.33;90.75;96838.13;5131246;27;20039;-75
2021/06/11 04:53:09;;;;;;;8.93;3.50;;;;;;;13.39;90.63;96839.84;5131400;28;20054;-74
2021/06/11 04:55:36;;;;;;;2.50;2.40;;;;;;;13.45;90.38;96837.34;5130950;27;20036;-74
2021/06/11 04:58:03;;;;;;;2.40;2.30;;;;;;;13.48;90.14;96839.50;5131266;27;20039;-74
2021/06/11 05:00:29;;;;;;;2.50;2.40;;;;;;;13.54;89.95;96849.16;5130791;27;20411;-73
2021/06/11 05:02:55;;;;;;;2.75;2.65;;;;;;;13.59;89.96;96849.28;5130972;27;20046;-74
2021/06/11 05:05:21;;;;;;;2.35;2.25;;;;;;;13.66;90.03;96851.81;5131391;27;20502;-74
2021/06/11 05:07:47;;;;;;;4.85;2.35;;;;;;;13.71;89.84;96850.09;5130943;27;20032;-73
2021/06/11 05:10:15;;;;;;;2.20;2.10;;;;;;;13.73;89.51;96850.69;5130544;27;20498;-73
2021/06/11 05:12:41;;;;;;;3.20;2.85;;;;;;;13.69;88.96;96851.34;5130728;27;20039;-74
2021/06/11 05:15:08;;;;;;;4.03;2.83;;;;;;;13.59;88.54;96851.91;5130858;27;20043;-74
2021/06/11 05:17:35;;;;;;;3.08;2.75;;;;;;;13.53;89.01;96855.47;5130950;27;20035;-73
2021/06/11 05:20:02;;;;;;;8.23;2.90;;;;;;;13.49;89.29;96857.72;5130822;28;20046;-74
2021/06/11 05:22:29;;;;;;;2.60;2.50;;;;;;;13.52;89.53;96865.19;5130802;27;20032;-73
2021/06/11 05:24:55;;;;;;;2.65;2.55;;;;;;;13.60;89.93;96856.16;5130479;27;20623;-74
2021/06/11 05:27:22;;;;;;;2.45;2.35;;;;;;;13.69;90.04;96865.34;5130692;27;20031;-74
2021/06/11 05:29:48;;;;;;;3.17;2.97;;;;;;;13.78;89.92;96858.69;5129896;28;20059;-74
2021/06/11 05:32:14;;;;;;;2.92;2.80;;;;;;;13.86;89.82;96862.03;5130650;27;20048;-75
2021/06/11 05:34:41;;;;;;;2.85;2.75;;;;;;;13.94;89.61;96859.03;5130616;28;20066;-74
2021/06/11 05:37:07;;;;;;;3.22;3.03;;;;;;;14.01;89.50;96865.03;5130279;27;20039;-74
2021/06/11 05:39:33;;;;;;;3.47;3.30;;;;;;;14.02;89.30;96869.25;5130101;27;20050;-75
2021/06/11 05:41:59;;;;;;;3.42;3.25;;;;;;;14.06;89.43;96865.13;5131168;27;20035;-74
2021/06/11 05:44:25;;;;;;;3.47;3.22;;;;;;;14.13;89.24;96865.84;5130418;28;20471;-74
2021/06/11 05:46:52;;;;;;;4.53;4.22;;;;;;;14.17;89.17;96872.25;5119584;28;20050;-74
2021/06/11 05:49:18;;;;;;;8.65;4.78;;;;;;;14.23;88.97;96872.34;5115467;28;20035;-73
2021/06/11 05:51:45;;;;;;;67.45;8.48;;;;;;;14.22;88.85;96866.28;5116499;28;20043;-73
2021/06/11 05:54:11;;;;;;;4.05;3.85;;;;;;;14.17;88.56;96868.78;5116306;28;20490;-73
2021/06/11 05:56:37;;;;;;;4.75;3.90;;;;;;;14.18;88.96;96865.13;5116249;28;20034;-73
2021/06/11 05:59:04;;;;;;;14.90;5.10;;;;;;;14.23;88.74;96862.59;5115970;28;20043;-74
2021/06/11 06:01:31;;;;;;;9.18;4.35;;;;;;;14.19;88.78;96862.28;5116451;28;20040;-73
2021/06/11 06:03:58;;;;;;;4.72;4.43;;;;;;;14.20;89.13;96863.88;5116118;28;20047;-73
2021/06/11 06:06:25;;;;;;;4.80;4.40;;;;;;;14.21;89.02;96868.13;5116020;28;20040;-74
2021/06/11 06:08:51;;;;;;;4.38;4.18;;;;;;;14.33;89.67;96868.09;5116005;28;20039;-73
2021/06/11 06:11:17;;;;;;;4.22;4.03;;;;;;;14.50;89.86;96873.47;5116252;28;20482;-74
2021/06/11 06:13:44;;;;;;;4.60;4.30;;;;;;;14.73;89.63;96867.38;5116425;28;20032;-74
2021/06/11 06:16:10;;;;;;;4.63;4.43;;;;;;;14.79;88.54;96874.34;5115846;28;20036;-74
2021/06/11 06:18:36;;;;;;;4.68;4.47;;;;;;;14.99;88.99;96863.41;5116133;28;20452;-74
2021/06/11 06:21:03;;;;;;;4.95;4.60;;;;;;;15.22;88.32;96869.59;5115463;28;20044;-74
2021/06/11 06:23:29;;;;;;;5.72;5.32;;;;;;;15.32;87.45;96866.34;5115878;28;20585;-73
2021/06/11 06:25:55;;;;;;;5.13;4.82;;;;;;;15.43;87.25;96866.31;5115833;28;20051;-73
2021/06/11 06:28:21;;;;;;;5.32;4.93;;;;;;;15.63;87.16;96865.03;5115617;28;20051;-73
2021/06/11 06:30:48;;;;;;;5.07;4.70;;;;;;;15.74;85.96;96869.47;5116033;28;20043;-74
2021/06/11 06:33:14;;;;;;;4.85;4.63;;;;;;;16.09;85.98;96871.06;5115735;28;20036;-74
2021/06/11 06:35:40;;;;;;;4.45;4.18;;;;;;;16.35;85.07;96863.47;5114336;28;20051;-74
2021/06/11 06:38:08;;;;;;;4.78;4.55;;;;;;;16.57;84.50;96866.94;5115419;28;20048;-75
2021/06/11 06:40:36;;;;;;;4.10;3.90;;;;;;;16.73;83.62;96859.97;5115072;28;20373;-74
2021/06/11 06:43:03;;;;;;;3.85;3.65;;;;;;;16.90;83.29;96862.59;5113935;28;20047;-74
2021/06/11 06:45:29;;;;;;;4.32;4.13;;;;;;;17.23;83.07;96866.91;5115601;28;20036;-74
2021/06/11 06:47:55;;;;;;;4.38;4.07;;;;;;;17.57;82.37;96864.06;5115348;28;20044;-74
2021/06/11 06:50:22;;;;;;;4.07;3.75;;;;;;;17.94;81.73;96860.66;5113914;28;20043;-75
2021/06/11 06:52:53;;;;;;;4.18;3.97;;;;;;;18.32;80.69;96855.34;5115547;28;20109;-75
2021/06/11 06:55:19;;;;;;;4.30;3.95;;;;;;;18.75;79.69;96864.84;5115329;28;20055;-74
2021/06/11 06:57:46;;;;;;;4.07;3.78;;;;;;;19.12;78.48;96865.78;5114593;28;20052;-75
2021/06/11 07:00:13;;;;;;;4.00;3.70;;;;;;;19.33;77.06;96859.44;5115259;28;20044;-75
2021/06/11 07:02:39;;;;;;;3.72;3.50;;;;;;;19.48;75.71;96856.78;5115097;27;20035;-75
2021/06/11 07:05:06;;;;;;;3.65;3.55;;;;;;;19.58;75.19;96861.31;5114736;28;20054;-73
2021/06/11 07:07:32;;;;;;;5.80;4.00;;;;;;;19.65;74.38;96855.75;5103155;28;20035;-72
2021/06/11 07:09:59;;;;;;;4.40;3.97;;;;;;;19.73;73.69;96868.53;5115198;28;20467;-72
2021/06/11 07:12:27;;;;;;;4.03;3.83;;;;;;;19.56;72.95;96867.97;5113353;28;20051;-72
2021/06/11 07:14:53;;;;;;;3.88;3.63;;;;;;;19.58;72.86;96863.19;5114169;28;20070;-73
2021/06/11 07:17:20;;;;;;;3.28;3.08;;;;;;;19.79;72.74;96869.34;5114268;28;20051;-73
2021/06/11 07:19:46;;;;;;;3.80;3.60;;;;;;;20.07;72.14;96858.16;5114485;28;20051;-73
2021/06/11 07:22:12;;;;;;;4.18;3.97;;;;;;;20.25;71.33;96861.31;5101825;28;20039;-73
2021/06/11 07:24:38;;;;;;;4.32;4.13;;;;;;;20.24;70.35;96865.03;5114835;28;20039;-73
2021/06/11 07:27:05;;;;;;;4.03;3.72;;;;;;;20.30;70.51;96871.94;5114906;28;20039;-73
2021/06/11 07:29:32;;;;;;;4.18;3.88;;;;;;;20.47;70.01;96864.47;5113226;28;20035;-73
2021/06/11 07:31:59;;;;;;;4.57;4.18;;;;;;;20.60;69.19;96863.13;5114192;28;20038;-73
2021/06/11 07:34:25;;;;;;;4.22;4.03;;;;;;;20.72;69.01;96859.34;5114597;28;20126;-73
2021/06/11 07:36:51;;;;;;;4.30;4.00;;;;;;;20.99;68.66;96858.94;5113922;28;20479;-73
2021/06/11 07:39:18;;;;;;;4.30;4.10;;;;;;;21.16;67.77;96851.38;5114786;28;20039;-73
2021/06/11 07:41:46;;;;;;;4.30;4.05;;;;;;;21.24;67.29;96853.47;5113357;28;20055;-73
2021/06/11 07:44:12;;;;;;;3.92;3.78;;;;;;;21.26;66.46;96855.88;5114448;28;20403;-73
2021/06/11 07:46:38;;;;;;;4.18;3.97;;;;;;;21.26;66.55;96847.88;5113968;28;20042;-73
2021/06/11 07:49:05;;;;;;;4.15;3.85;;;;;;;21.37;66.21;96853.94;5114547;28;20054;-73
2021/06/11 07:51:31;;;;;;;3.90;3.70;;;;;;;21.55;66.15;96849.84;5114227;28;20387;-73
2021/06/11 07:53:57;;;;;;;3.72;3.55;;;;;;;21.90;66.01;96846.06;5114064;28;20048;-72
2021/06/11 07:56:23;;;;;;;4.25;4.05;;;;;;;22.10;64.75;96847.75;5114028;28;20043;-73
2021/06/11 07:58:50;;;;;;;4.15;3.90;;;;;;;22.12;64.31;96847.50;5114181;28;20034;-72
2021/06/11 08:01:16;;;;;;;4.10;3.90;;;;;;;22.08;64.02;96842.69;5113305;28;20058;-74
2021/06/11 08:03:42;;;;;;;3.78;3.58;;;;;;;22.27;64.30;96844.69;5114183;28;20032;-73
2021/06/11 08:06:08;;;;;;;3.70;3.47;;;;;;;22.45;63.75;96843.97;5113798;28;20047;-73
2021/06/11 08:08:34;;;;;;;3.97;3.67;;;;;;;22.56;63.70;96841.19;5112807;28;20043;-73
2021/06/11 08:11:01;;;;;;;3.72;3.53;;;;;;;22.67;63.69;96845.31;5113863;28;20463;-75
2021/06/11 08:13:28;;;;;;;4.43;3.78;;;;;;;22.85;63.32;96841.09;5113728;28;20035;-76
2021/06/11 08:15:54;;;;;;;3.80;3.60;;;;;;;22.87;62.72;96842.38;5113634;28;20035;-75
2021/06/11 08:18:20;;;;;;;5.72;3.58;;;;;;;22.83;62.46;96843.25;5111461;28;20039;-74
2021/06/11 08:20:46;;;;;;;3.70;3.50;;;;;;;22.89;62.76;96844.78;5114081;28;20039;-75
2021/06/11 08:23:13;;;;;;;3.95;3.75;;;;;;;23.09;62.62;96838.38;5113634;28;20043;-75
2021/06/11 08:25:39;;;;;;;4.72;3.70;;;;;;;23.33;62.20;96837.50;5113875;28;20039;-74
2021/06/11 08:28:06;;;;;;;3.70;3.50;;;;;;;23.44;61.45;96837.06;5112762;28;20403;-75
2021/06/11 08:30:32;;;;;;;3.85;3.65;;;;;;;23.45;61.08;96837.84;5097764;28;20047;-75
2021/06/11 08:32:59;;;;;;;4.00;3.80;;;;;;;23.60;61.29;96834.97;5113736;28;20039;-75
2021/06/11 08:35:27;;;;;;;3.65;3.45;;;;;;;23.73;61.20;96832.59;5112052;28;20047;-75
2021/06/11 08:37:55;;;;;;;3.50;3.30;;;;;;;23.85;61.16;96832.97;5113112;28;20070;-75
2021/06/11 08:40:21;;;;;;;3.65;3.45;;;;;;;24.07;61.36;96830.44;5113642;28;20048;-75
2021/06/11 08:42:48;;;;;;;3.30;3.10;;;;;;;24.37;61.30;96830.97;5113378;28;20035;-75
2021/06/11 08:45:15;;;;;;;4.15;3.92;;;;;;;24.65;60.57;96828.28;5113455;28;20072;-75
2021/06/11 08:47:47;;;;;;;4.00;3.80;;;;;;;24.55;59.66;96828.50;5112840;28;20051;-75
2021/06/11 08:50:16;;;;;;;4.00;3.80;;;;;;;24.57;59.73;96826.31;5113475;28;20483;-75
2021/06/11 08:52:44;;;;;;;3.67;3.47;;;;;;;24.61;59.66;96820.06;5113489;28;20031;-75
2021/06/11 08:55:11;;;;;;;4.13;3.83;;;;;;;24.71;59.56;96822.56;5113226;28;20040;-75
2021/06/11 08:57:37;;;;;;;4.30;4.00;;;;;;;24.92;60.11;96828.28;5112785;28;20060;-74
2021/06/11 09:00:06;;;;;;;4.15;3.95;;;;;;;24.95;59.64;96829.56;5113966;28;20466;-75
2021/06/11 09:02:33;;;;;;;4.18;3.80;;;;;;;25.11;59.42;96827.31;5113427;28;20062;-72
2021/06/11 09:05:00;;;;;;;3.80;3.60;;;;;;;25.24;58.88;96815.00;5113025;28;20043;-72
2021/06/11 09:07:33;;;;;;;3.60;3.40;;;;;;;25.22;58.83;96811.81;5113300;28;20043;-73
2021/06/11 09:10:04;;;;;;;4.22;4.03;;;;;;;25.30;58.60;96817.28;5100737;28;20486;-72
2021/06/11 09:12:42;;;;;;;4.22;4.03;;;;;;;25.39;57.10;96809.28;5112784;28;20032;-72
2021/06/11 09:15:14;;;;;;;4.13;3.92;;;;;;;25.40;57.83;96815.44;5112949;28;20046;-72
2021/06/11 09:17:44;;;;;;;4.43;4.22;;;;;;;25.49;56.74;96811.72;5113532;28;20048;-72
2021/06/11 09:20:17;;;;;;;4.10;3.90;;;;;;;25.41;55.64;96804.41;5113104;28;20475;-73
2021/06/11 09:22:50;;;;;;;4.60;4.40;;;;;;;25.50;55.95;96804.47;5116712;28;20043;-72
2021/06/11 09:25:36;;;;;;;5.00;4.55;;;;;;;25.45;56.09;96800.00;5116579;28;20047;-72
2021/06/11 09:28:06;;;;;;;4.38;4.18;;;;;;;25.57;55.69;96809.41;5117303;27;20476;-72
2021/06/11 09:30:38;;;;;;;4.70;4.30;;;;;;;25.45;54.88;96805.38;5116937;28;20023;-74
2021/06/11 09:33:11;;;;;;;4.18;3.97;;;;;;;25.47;55.67;96805.88;5116767;28;20040;-72
2021/06/11 09:35:44;;;;;;;4.57;4.38;;;;;;;25.20;55.39;96798.72;5116856;27;20058;-72
2021/06/11 09:38:15;;;;;;;4.40;4.13;;;;;;;24.88;56.04;96811.19;5116743;28;20043;-72
2021/06/11 09:40:50;;;;;;;4.38;4.07;;;;;;;24.93;55.95;96807.59;5116893;28;20036;-72
2021/06/11 09:43:17;;;;;;;4.50;4.20;;;;;;;25.07;56.28;96804.88;5116373;27;20043;-72
2021/06/11 09:45:58;;;;;;;4.43;4.15;;;;;;;25.22;56.19;96801.06;5116399;28;20027;-72
2021/06/11 09:48:27;;;;;;;4.57;3.85;;;;;;;25.50;55.82;96799.09;5116659;28;20034;-72
2021/06/11 09:50:54;;;;;;;4.50;4.30;;;;;;;25.87;55.98;96791.69;5116656;28;20030;-72
2021/06/11 09:53:26;;;;;;;4.85;4.45;;;;;;;26.20;55.47;96794.91;5116390;28;20035;-72
2021/06/11 09:55:57;;;;;;;4.18;3.90;;;;;;;26.53;54.58;96786.47;5116849;28;20043;-73
2021/06/11 09:58:34;;;;;;;4.18;3.97;;;;;;;26.80;52.65;96769.28;5116404;28;20051;-72
2021/06/11 10:01:07;;;;;;;4.22;3.92;;;;;;;26.78;52.93;96770.72;5116752;28;20039;-72
2021/06/11 10:03:35;;;;;;;4.20;3.80;;;;;;;26.55;51.98;96756.56;5116551;28;20395;-73
2021/06/11 10:06:04;;;;;;;4.03;3.72;;;;;;;26.36;51.19;96759.53;5116032;28;20510;-72
2021/06/11 10:08:31;;;;;;;3.65;3.45;;;;;;;26.50;51.15;96761.00;5116512;28;20046;-72
2021/06/11 10:11:00;;;;;;;4.10;3.90;;;;;;;26.75;50.94;96758.66;5115916;28;20044;-72
2021/06/11 10:13:27;;;;;;;3.85;3.65;;;;;;;27.02;50.48;96749.50;5116351;28;20046;-72
2021/06/11 10:15:55;;;;;;;3.95;3.75;;;;;;;27.23;50.15;96751.59;5115346;28;20046;-72
2021/06/11 10:18:22;;;;;;;3.65;3.28;;;;;;;27.16;49.48;96746.66;5115829;28;20031;-72
2021/06/11 10:20:49;;;;;;;3.05;2.90;;;;;;;27.14;48.58;96738.91;5116037;28;20032;-72
2021/06/11 10:23:18;;;;;;;3.00;2.80;;;;;;;27.29;48.31;96736.84;5115584;28;20050;-72
2021/06/11 10:25:46;;;;;;;3.47;2.70;;;;;;;27.53;47.67;96737.13;5115610;28;20028;-72
2021/06/11 10:28:18;;;;;;;2.80;2.60;;;;;;;27.69;42.71;96705.06;5114452;28;20503;-72
2021/06/11 10:30:47;;;;;;;3.00;2.80;;;;;;;27.73;44.82;96724.06;5115932;28;20476;-73
2021/06/11 10:33:14;;;;;;;2.70;2.60;;;;;;;27.67;44.86;96763.09;5115557;28;20499;-72
2021/06/11 10:35:48;;;;;;;2.85;2.75;;;;;;;27.62;43.05;96755.19;5115261;28;20077;-72
2021/06/11 10:38:31;;;;;;;;;;;;;;;27.84;44.01;96754.94;5116177;28;20039;-72
2021/06/11 10:41:02;;;;;;;2.90;2.72;;;;;;;28.07;43.83;96763.59;5115664;28;19908;-72
2021/06/11 10:43:36;;;;;;;2.53;2.42;;;;;;;28.16;43.31;96765.47;5102152;28;20042;-73
2021/06/11 10:46:03;;;;;;;2.58;1.83;;;;;;;28.33;42.84;96763.50;5115881;28;20035;-72
2021/06/11 10:49:06;;;;;;;2.63;2.53;;;;;;;28.34;40.39;96745.41;5114807;28;20047;-72
2021/06/11 10:51:40;;;;;;;3.15;2.95;;;;;;;28.19;41.66;96754.84;5052668;28;20052;-72
2021/06/11 10:54:15;;;;;;;3.10;2.50;;;;;;;28.09;41.66;96758.69;5105769;28;20051;-72
2021/06/11 10:57:00;;;;;;;3.13;2.92;;;;;;;28.22;39.93;96739.91;5115190;28;20042;-72
2021/06/11 10:59:33;;;;;;;4.47;2.67;;;;;;;28.22;38.54;96740.69;5107484;28;20521;-71
2021/06/11 11:02:00;;;;;;;2.10;2.00;;;;;;;28.02;40.51;96760.31;5115131;28;20035;-72
2021/06/11 11:04:28;;;;;;;2.90;2.70;;;;;;;27.77;40.50;96754.66;5115247;28;20042;-73
2021/06/11 11:06:54;;;;;;;2.40;2.30;;;;;;;27.65;41.01;96757.22;5114835;28;20039;-73
2021/06/11 11:09:21;;;;;;;2.67;2.58;;;;;;;27.65;41.31;96755.31;5115519;28;20051;-72
2021/06/11 11:11:47;;;;;;;2.80;2.70;;;;;;;27.68;41.18;96746.59;5114871;28;20036;-73
2021/06/11 11:14:36;;;;;;;2.65;2.47;;;;;;;27.98;42.87;96762.84;5114428;28;20051;-73
2021/06/11 11:17:03;;;;;;;2.80;2.63;;;;;;;28.26;41.62;96736.22;5114487;28;20364;-73
2021/06/11 11:19:51;;;;;;;2.55;2.40;;;;;;;28.53;39.14;96716.09;5115433;28;20375;-73
2021/06/11 11:22:29;;;;;;;2.35;2.25;;;;;;;28.45;40.93;96721.53;5114109;28;20456;-73
2021/06/11 11:24:58;;;;;;;3.22;2.50;;;;;;;28.33;41.49;96727.66;5114595;28;20023;-73
2021/06/11 11:27:25;;;;;;;2.47;2.38;;;;;;;28.36;41.69;96731.59;5114445;28;20023;-73
2021/06/11 11:29:53;;;;;;;2.75;2.60;;;;;;;28.62;41.83;96734.16;5114846;28;20391;-73
2021/06/11 11:32:20;;;;;;;2.53;2.33;;;;;;;28.82;41.76;96727.97;5114458;28;20481;-72
2021/06/11 11:34:46;;;;;;;2.60;2.50;;;;;;;28.98;41.37;96725.47;5114729;28;20051;-73
2021/06/11 11:37:14;;;;;;;2.65;2.55;;;;;;;29.08;41.48;96710.75;5114307;28;20047;-73
2021/06/11 11:39:41;;;;;;;2.00;1.90;;;;;;;29.08;40.84;96718.88;5113804;28;20452;-73
2021/06/11 11:42:11;;;;;;;2.40;2.30;;;;;;;29.09;40.42;96721.25;5113556;28;20051;-73